Time;durP1;ratioP1;P1;durP2;ratioP2;P2;SDS_P1;SDS_P2;PMS_P1;PMS_P2;Temp;Humidity;BMP_temperature;BMP_pressure;BME280_temperature;BME280_humidity;BME280_pressure;Samples;Min_cycle;Max_cycle;Signal;HPM_P1;HPM_P2
2024/02/05 00:02:25;;;;;;;0.00;0.00;;;;;;;9.95;93.09;101400.31;6252866;22;19999;-78
2024/02/05 00:04:50;;;;;;;0.00;0.00;;;;;;;9.65;93.52;101360.31;6254902;22;20022;-77
2024/02/05 00:07:36;;;;;;;0.00;0.00;;;;;;;9.82;93.57;101389.63;6253148;22;20078;-78
2024/02/05 00:10:35;;;;;;;0.00;0.00;;;;;;;9.86;93.52;101388.91;6231907;22;20007;-78
2024/02/05 00:13:11;;;;;;;0.00;0.00;;;;;;;9.94;93.69;101409.56;6270375;22;20328;-77
2024/02/05 00:15:36;;;;;;;0.00;0.00;;;;;;;9.86;93.17;101394.38;6254058;22;20031;-77
2024/02/05 00:18:12;;;;;;;;;;;;;;;;;;;;;
2024/02/05 00:20:41;;;;;;;0.00;0.00;;;;;;;9.88;93.11;101400.44;6279692;22;20026;-77
2024/02/05 00:23:07;;;;;;;0.00;0.00;;;;;;;9.71;93.94;101380.34;6276310;22;20334;-78
2024/02/05 00:25:33;;;;;;;0.00;0.00;;;;;;;9.67;93.47;101366.34;6254597;22;20003;-78
2024/02/05 00:27:58;;;;;;;0.00;0.00;;;;;;;9.80;93.72;101387.13;6250800;22;20015;-77
2024/02/05 00:30:58;;;;;;;;;;;;;;;;;;;;;
2024/02/05 00:33:31;;;;;;;0.00;0.00;;;;;;;9.84;93.53;101395.69;6270489;22;20047;-76
2024/02/05 00:36:07;;;;;;;;;;;;;;;;;;;;;
2024/02/05 00:38:35;;;;;;;0.00;0.00;;;;;;;9.42;93.14;101339.28;6278341;22;20027;-77
2024/02/05 00:41:01;;;;;;;0.00;0.00;;;;;;;9.51;93.00;101359.69;6277031;22;20012;-78
2024/02/05 00:43:26;;;;;;;0.00;0.00;;;;;;;9.60;92.03;101377.38;6277946;22;20142;-77
2024/02/05 00:45:52;;;;;;;0.00;0.00;;;;;;;9.59;91.86;101388.53;6225499;22;20011;-77
2024/02/05 00:48:19;;;;;;;0.00;0.00;;;;;;;9.50;92.47;101371.66;6251203;22;20014;-77
2024/02/05 00:50:47;;;;;;;0.00;0.00;;;;;;;9.54;92.45;101396.63;6251815;22;20068;-77
2024/02/05 00:53:24;;;;;;;0.00;0.00;;;;;;;9.51;92.70;101372.53;6228392;22;20314;-77
2024/02/05 00:55:59;;;;;;;0.00;0.00;;;;;;;9.50;93.20;101379.84;6227026;22;20008;-78
2024/02/05 00:58:29;;;;;;;0.00;0.00;;;;;;;9.55;92.66;101382.72;6254228;22;19999;-78
2024/02/05 01:00:55;;;;;;;0.00;0.00;;;;;;;9.47;92.44;101366.69;6248716;22;20003;-78
2024/02/05 01:03:38;;;;;;;;;;;;;;;;;;;;;
2024/02/05 01:06:06;;;;;;;0.00;0.00;;;;;;;9.30;92.20;101338.41;6279540;22;20075;-78
2024/02/05 01:08:42;;;;;;;0.00;0.00;;;;;;;9.54;91.71;101386.50;6253284;22;20367;-79
2024/02/05 01:11:10;;;;;;;0.00;0.00;;;;;;;9.52;91.53;101379.63;6250262;22;20330;-78
2024/02/05 01:13:43;;;;;;;0.00;0.00;;;;;;;9.39;91.43;101361.59;6251861;22;20007;-77
2024/02/05 01:16:18;;;;;;;0.00;0.00;;;;;;;9.28;91.05;101327.72;6274191;22;20769;-78
2024/02/05 01:18:46;;;;;;;0.00;0.00;;;;;;;9.51;89.85;101378.81;6252682;22;20036;-75
2024/02/05 01:21:32;;;;;;;0.10;0.10;;;;;;;9.25;90.60;101344.56;6275807;22;20026;-76
2024/02/05 01:23:57;;;;;;;0.00;0.00;;;;;;;9.35;91.37;101349.47;6252944;22;20004;-76
2024/02/05 01:26:26;;;;;;;0.00;0.00;;;;;;;9.33;91.57;101343.41;6274344;22;20037;-77
2024/02/05 01:28:53;;;;;;;0.00;0.00;;;;;;;9.22;91.41;101329.50;6280542;22;20430;-76
2024/02/05 01:31:19;;;;;;;0.00;0.00;;;;;;;9.23;91.55;101333.91;6277153;22;20004;-76
2024/02/05 01:33:44;;;;;;;0.00;0.00;;;;;;;9.36;91.65;101337.47;6285590;22;20077;-76
2024/02/05 01:36:10;;;;;;;0.00;0.00;;;;;;;9.34;91.73;101336.88;6281066;22;19996;-76
2024/02/05 01:38:35;;;;;;;0.00;0.00;;;;;;;9.33;91.68;101324.28;6275697;22;20015;-76
2024/02/05 01:41:03;;;;;;;0.00;0.00;;;;;;;9.43;92.16;101351.84;6303321;22;20038;-78
2024/02/05 01:43:31;;;;;;;0.00;0.00;;;;;;;9.35;92.49;101327.63;6305362;22;20008;-77
2024/02/05 01:45:57;;;;;;;0.00;0.00;;;;;;;9.32;92.25;101319.91;6277759;22;20027;-76
2024/02/05 01:48:28;;;;;;;0.00;0.00;;;;;;;9.38;92.14;101327.16;6304505;22;20414;-77
2024/02/05 01:50:54;;;;;;;0.00;0.00;;;;;;;9.45;92.42;101344.25;6247610;22;20010;-77
2024/02/05 01:53:21;;;;;;;0.00;0.00;;;;;;;9.37;92.28;101337.22;6277713;22;20011;-76
2024/02/05 01:55:48;;;;;;;0.00;0.00;;;;;;;9.36;91.55;101334.72;6274842;22;20133;-77
2024/02/05 01:58:14;;;;;;;0.00;0.00;;;;;;;9.36;92.74;101340.19;6253192;22;20483;-77
2024/02/05 02:00:41;;;;;;;0.00;0.00;;;;;;;9.38;92.83;101335.34;6278784;22;20015;-78
2024/02/05 02:03:07;;;;;;;0.00;0.00;;;;;;;9.29;92.74;101313.03;6251197;22;20012;-76
2024/02/05 02:05:32;;;;;;;0.00;0.00;;;;;;;9.21;92.56;101316.94;6253024;22;20334;-78
2024/02/05 02:07:58;;;;;;;0.00;0.00;;;;;;;9.19;93.89;101305.41;6249905;22;20011;-78
2024/02/05 02:10:23;;;;;;;0.00;0.00;;;;;;;9.37;93.85;101330.94;6251645;22;20004;-77
2024/02/05 02:12:54;;;;;;;0.00;0.00;;;;;;;9.31;94.10;101315.50;6274448;22;20331;-77
2024/02/05 02:15:19;;;;;;;0.00;0.00;;;;;;;9.25;94.11;101307.19;6276851;22;20004;-78
2024/02/05 02:17:59;;;;;;;0.00;0.00;;;;;;;9.25;94.13;101304.47;6247936;22;20019;-76
2024/02/05 02:20:32;;;;;;;0.00;0.00;;;;;;;9.29;93.65;101312.16;6250906;22;20015;-77
2024/02/05 02:23:09;;;;;;;0.00;0.00;;;;;;;9.03;93.89;101265.19;6247835;22;20063;-76
2024/02/05 02:25:38;;;;;;;0.00;0.00;;;;;;;9.37;93.22;101317.28;6303527;22;20062;-77
2024/02/05 02:28:04;;;;;;;0.00;0.00;;;;;;;9.13;93.26;101281.78;6274011;22;20007;-77
2024/02/05 02:30:30;;;;;;;0.00;0.00;;;;;;;9.22;92.95;101291.28;6302223;22;20008;-77
2024/02/05 02:32:58;;;;;;;0.10;0.10;;;;;;;9.32;93.25;101317.19;6279748;22;20427;-77
2024/02/05 02:35:32;;;;;;;0.00;0.00;;;;;;;9.29;93.32;101306.72;6246647;22;20004;-78
2024/02/05 02:38:05;;;;;;;0.00;0.00;;;;;;;9.16;93.25;101285.97;6277677;22;20161;-78
2024/02/05 02:40:33;;;;;;;0.00;0.00;;;;;;;9.31;93.43;101312.78;6274842;22;19991;-77
2024/02/05 02:43:02;;;;;;;0.05;0.05;;;;;;;9.17;92.66;101299.38;6252309;22;20419;-76
2024/02/05 02:45:29;;;;;;;0.00;0.00;;;;;;;9.24;93.04;101313.72;6248947;22;20253;-77
2024/02/05 02:47:55;;;;;;;0.00;0.00;;;;;;;9.13;92.70;101314.53;6251995;22;20018;-78
2024/02/05 02:50:21;;;;;;;0.00;0.00;;;;;;;9.12;92.52;101304.69;6227514;22;19995;-76
2024/02/05 02:52:47;;;;;;;0.00;0.00;;;;;;;9.01;93.11;101280.94;6223116;22;20007;-79
2024/02/05 02:55:13;;;;;;;0.00;0.00;;;;;;;9.05;94.06;101291.16;6226044;22;20034;-76
2024/02/05 02:57:38;;;;;;;0.00;0.00;;;;;;;9.02;93.56;101274.41;6245262;22;20050;-75
2024/02/05 03:00:08;;;;;;;0.00;0.00;;;;;;;8.99;93.52;101263.97;6228628;22;20075;-77
2024/02/05 03:02:34;;;;;;;0.00;0.00;;;;;;;9.01;93.86;101280.94;6223447;22;20379;-76
2024/02/05 03:05:00;;;;;;;0.00;0.00;;;;;;;9.01;94.02;101264.56;6199111;23;20015;-76
2024/02/05 03:07:28;;;;;;;0.00;0.00;;;;;;;9.05;94.01;101273.94;6246168;22;20007;-77
2024/02/05 03:09:55;;;;;;;0.00;0.00;;;;;;;9.05;93.57;101269.34;6226301;22;20095;-78
2024/02/05 03:12:23;;;;;;;0.00;0.00;;;;;;;9.04;94.11;101269.56;6279140;22;20004;-76
2024/02/05 03:14:48;;;;;;;0.00;0.00;;;;;;;8.99;94.02;101255.78;6226082;22;20026;-77
2024/02/05 03:17:17;;;;;;;0.00;0.00;;;;;;;8.95;94.05;101243.69;6200927;22;20011;-78
2024/02/05 03:19:43;;;;;;;0.00;0.00;;;;;;;8.93;94.29;101232.19;6225229;22;20557;-77
2024/02/05 03:22:08;;;;;;;0.00;0.00;;;;;;;8.95;93.69;101235.50;6224507;22;20069;-76
2024/02/05 03:24:34;;;;;;;0.00;0.00;;;;;;;8.99;94.62;101242.16;6249984;22;20010;-77
2024/02/05 03:26:59;;;;;;;0.00;0.00;;;;;;;8.93;94.04;101221.28;6250397;22;20008;-76
2024/02/05 03:29:24;;;;;;;0.00;0.00;;;;;;;8.93;94.16;101237.66;6249939;22;20029;-76
2024/02/05 03:31:50;;;;;;;0.00;0.00;;;;;;;8.98;94.12;101240.47;6223103;22;20446;-78
2024/02/05 03:34:16;;;;;;;0.00;0.00;;;;;;;8.98;93.58;101235.88;6277705;22;20024;-76
2024/02/05 03:36:42;;;;;;;0.00;0.00;;;;;;;8.95;94.17;101232.78;6223813;22;20008;-77
2024/02/05 03:39:09;;;;;;;0.00;0.00;;;;;;;8.96;93.90;101239.91;6223954;22;19999;-77
2024/02/05 03:41:40;;;;;;;0.00;0.00;;;;;;;8.84;94.08;101224.34;6248250;22;20422;-77
2024/02/05 03:44:06;;;;;;;0.00;0.00;;;;;;;8.96;94.20;101242.63;6200331;22;20007;-76
2024/02/05 03:46:31;;;;;;;0.10;0.10;;;;;;;8.97;94.51;101249.75;6226234;22;20018;-77
2024/02/05 03:48:57;;;;;;;0.00;0.00;;;;;;;8.78;94.66;101214.38;6244536;22;20031;-77
2024/02/05 03:51:22;;;;;;;0.00;0.00;;;;;;;8.85;94.50;101214.28;6201655;22;20012;-78
2024/02/05 03:53:48;;;;;;;0.00;0.00;;;;;;;8.84;94.67;101213.44;6186758;22;20779;-76
2024/02/05 03:56:16;;;;;;;0.00;0.00;;;;;;;9.01;94.20;101226.38;6250329;22;20007;-77
2024/02/05 03:58:54;;;;;;;;;;;;;;;;;;;;;
2024/02/05 04:01:29;;;;;;;0.00;0.00;;;;;;;8.82;93.96;101196.47;6254168;22;20039;-76
2024/02/05 04:03:55;;;;;;;0.10;0.10;;;;;;;8.87;94.28;101220.31;6247557;22;20011;-76
2024/02/05 04:06:29;;;;;;;0.00;0.00;;;;;;;8.76;94.17;101205.63;6251830;22;20509;-76
2024/02/05 04:08:54;;;;;;;;;;;;;;;8.87;94.29;101223.88;6253637;22;19999;-76
2024/02/05 04:11:20;;;;;;;0.00;0.00;;;;;;;8.70;94.52;101195.63;6227153;22;19943;-77
2024/02/05 04:13:45;;;;;;;0.00;0.00;;;;;;;8.72;94.75;101196.22;6224587;22;20063;-77
2024/02/05 04:16:14;;;;;;;0.00;0.00;;;;;;;8.80;94.45;101205.97;6248604;22;20016;-75
2024/02/05 04:18:39;;;;;;;0.00;0.00;;;;;;;8.76;94.64;101194.69;6249265;22;20085;-76
2024/02/05 04:21:05;;;;;;;0.00;0.00;;;;;;;8.85;94.21;101204.19;6225848;22;20003;-77
2024/02/05 04:23:30;;;;;;;0.00;0.00;;;;;;;8.84;94.28;101202.53;6274114;22;20482;-76
2024/02/05 04:25:56;;;;;;;0.00;0.00;;;;;;;8.80;94.43;101200.50;6251237;22;20094;-78
2024/02/05 04:28:21;;;;;;;0.00;0.00;;;;;;;8.79;94.07;101201.56;6248202;22;20007;-77
2024/02/05 04:30:47;;;;;;;0.00;0.00;;;;;;;8.84;94.46;101210.69;6276803;22;20011;-76
2024/02/05 04:33:12;;;;;;;0.00;0.00;;;;;;;8.82;93.80;101215.56;6200650;22;20145;-76
2024/02/05 04:35:38;;;;;;;0.00;0.00;;;;;;;8.78;94.29;101191.75;6224893;22;20091;-75
2024/02/05 04:38:05;;;;;;;0.00;0.00;;;;;;;8.83;94.10;101205.47;6251558;22;20096;-77
2024/02/05 04:40:33;;;;;;;0.03;0.03;;;;;;;8.77;94.66;101200.97;6249486;22;20503;-77
2024/02/05 04:42:59;;;;;;;0.00;0.00;;;;;;;8.82;94.48;101210.13;6276045;22;20022;-76
2024/02/05 04:45:24;;;;;;;0.00;0.00;;;;;;;8.75;94.39;101187.59;6247222;22;20374;-76
2024/02/05 04:47:49;;;;;;;0.00;0.00;;;;;;;8.79;94.82;101194.22;6197731;22;20047;-76
2024/02/05 04:50:15;;;;;;;0.00;0.00;;;;;;;8.77;94.22;101196.34;6225734;22;20008;-75
2024/02/05 04:52:41;;;;;;;0.00;0.00;;;;;;;8.72;94.85;101171.69;6251272;22;20016;-76
2024/02/05 04:55:07;;;;;;;0.00;0.00;;;;;;;8.68;94.57;101165.88;6228712;22;20422;-77
2024/02/05 04:57:32;;;;;;;0.00;0.00;;;;;;;8.68;94.21;101174.03;6226588;22;20010;-75
2024/02/05 04:59:58;;;;;;;0.00;0.00;;;;;;;8.62;94.26;101161.34;6225830;22;19999;-77
2024/02/05 05:02:30;;;;;;;0.00;0.00;;;;;;;8.59;95.24;101159.09;6250635;22;20875;-78
2024/02/05 05:04:58;;;;;;;0.10;0.10;;;;;;;8.64;95.11;101170.13;6303382;22;20015;-77
2024/02/05 05:07:41;;;;;;;0.00;0.00;;;;;;;8.65;95.17;101165.50;6226689;22;20739;-77
2024/02/05 05:10:07;;;;;;;0.00;0.00;;;;;;;8.59;94.32;101155.56;6279001;22;20015;-78
2024/02/05 05:12:33;;;;;;;0.00;0.00;;;;;;;8.65;94.10;101166.34;6301615;22;20010;-78
2024/02/05 05:14:58;;;;;;;0.00;0.00;;;;;;;8.49;93.98;101146.03;6249534;22;20008;-77
2024/02/05 05:17:24;;;;;;;0.00;0.00;;;;;;;8.69;94.32;101177.63;6276132;22;20031;-78
2024/02/05 05:19:49;;;;;;;0.10;0.10;;;;;;;8.68;94.71;101173.22;6251650;22;19996;-77
2024/02/05 05:22:22;;;;;;;0.00;0.00;;;;;;;8.72;94.11;101177.16;6228538;22;20065;-77
2024/02/05 05:24:47;;;;;;;0.00;0.00;;;;;;;8.69;94.27;101166.72;6225898;22;20099;-77
2024/02/05 05:27:12;;;;;;;0.10;0.10;;;;;;;8.57;94.54;101153.03;6252258;22;20008;-78
2024/02/05 05:29:38;;;;;;;0.00;0.00;;;;;;;8.76;94.94;101172.88;6223407;22;20422;-77
2024/02/05 05:32:04;;;;;;;0.00;0.00;;;;;;;8.68;95.36;101159.59;6250802;22;20071;-76
2024/02/05 05:34:29;;;;;;;0.00;0.00;;;;;;;8.65;94.68;101151.88;6252542;22;20042;-77
2024/02/05 05:36:55;;;;;;;0.00;0.00;;;;;;;8.68;94.97;101165.03;6225861;22;20435;-76
2024/02/05 05:39:20;;;;;;;0.00;0.00;;;;;;;8.62;94.46;101163.25;6226692;22;20334;-77
2024/02/05 05:41:45;;;;;;;0.08;0.08;;;;;;;8.61;94.03;101161.59;6201066;22;20008;-77
2024/02/05 05:44:11;;;;;;;0.00;0.00;;;;;;;8.63;94.06;101173.06;6200616;22;20027;-77
2024/02/05 05:46:38;;;;;;;0.00;0.00;;;;;;;8.52;94.09;101156.47;6252972;22;20031;-76
2024/02/05 05:49:06;;;;;;;0.00;0.00;;;;;;;8.61;94.43;101164.31;6250551;22;20389;-78
2024/02/05 05:51:31;;;;;;;0.00;0.00;;;;;;;8.59;94.41;101161.81;6228891;22;20011;-77
2024/02/05 05:53:56;;;;;;;0.00;0.00;;;;;;;8.60;93.90;101162.66;6250361;22;20057;-77
2024/02/05 05:56:22;;;;;;;0.00;0.00;;;;;;;8.49;93.71;101140.59;6228803;22;20007;-77
2024/02/05 05:58:52;;;;;;;0.00;0.00;;;;;;;8.34;93.75;101118.38;6224817;22;20031;-78
2024/02/05 06:01:18;;;;;;;0.00;0.00;;;;;;;8.40;93.86;101125.63;6279249;22;20003;-77
2024/02/05 06:03:43;;;;;;;0.00;0.00;;;;;;;8.44;93.99;101132.31;6251680;22;20091;-77
2024/02/05 06:06:09;;;;;;;0.00;0.00;;;;;;;8.51;93.27;101145.81;6278679;22;20011;-76
2024/02/05 06:08:34;;;;;;;0.00;0.00;;;;;;;8.48;93.51;101132.66;6278598;22;20015;-77
2024/02/05 06:10:59;;;;;;;0.00;0.00;;;;;;;8.39;93.72;101118.50;6227120;22;20015;-76
2024/02/05 06:13:25;;;;;;;0.00;0.00;;;;;;;8.47;93.01;101130.97;6277464;22;20011;-77
2024/02/05 06:15:51;;;;;;;0.00;0.00;;;;;;;8.41;92.70;101129.16;6227353;22;20016;-78
2024/02/05 06:18:16;;;;;;;0.00;0.00;;;;;;;8.42;92.35;101147.19;6224719;22;20035;-77
2024/02/05 06:20:44;;;;;;;0.10;0.10;;;;;;;8.35;92.38;101139.09;6227132;22;20007;-77
2024/02/05 06:23:09;;;;;;;0.00;0.00;;;;;;;8.33;92.55;101128.44;6276243;22;20008;-76
2024/02/05 06:25:35;;;;;;;0.00;0.00;;;;;;;8.34;92.94;101126.56;6225703;22;20018;-78
2024/02/05 06:28:00;;;;;;;0.00;0.00;;;;;;;8.43;92.24;101143.41;6224572;22;20058;-78
2024/02/05 06:30:27;;;;;;;0.00;0.00;;;;;;;8.39;92.48;101135.66;6225674;22;19996;-78
2024/02/05 06:32:53;;;;;;;0.00;0.00;;;;;;;8.31;92.70;101113.38;6200154;22;20031;-77
2024/02/05 06:35:18;;;;;;;0.00;0.00;;;;;;;8.35;91.88;101122.75;6224247;22;20014;-77
2024/02/05 06:37:44;;;;;;;0.00;0.00;;;;;;;8.37;92.52;101126.91;6252367;22;20027;-77
2024/02/05 06:40:09;;;;;;;0.00;0.00;;;;;;;8.46;92.46;101141.06;6226229;22;20061;-77
2024/02/05 06:42:35;;;;;;;0.00;0.00;;;;;;;8.37;92.93;101126.09;6252228;22;20011;-77
2024/02/05 06:45:01;;;;;;;0.00;0.00;;;;;;;8.42;92.95;101128.94;6252362;22;19996;-76
2024/02/05 06:47:32;;;;;;;0.10;0.10;;;;;;;8.33;92.60;101114.81;6200514;22;20030;-78
2024/02/05 06:49:58;;;;;;;0.00;0.00;;;;;;;8.47;92.72;101137.28;6228572;22;20014;-78
2024/02/05 06:52:50;;;;;;;0.00;0.00;;;;;;;8.44;93.05;101142.31;6249345;22;20617;-77
2024/02/05 06:55:18;;;;;;;0.10;0.10;;;;;;;8.43;92.97;101137.97;6252797;22;20000;-79
2024/02/05 06:57:56;;;;;;;0.00;0.00;;;;;;;8.23;92.56;101108.28;6251110;22;20066;-78
2024/02/05 07:00:32;;;;;;;0.00;0.00;;;;;;;8.06;92.79;101076.28;6249627;22;20014;-78
2024/02/05 07:03:00;;;;;;;0.00;0.00;;;;;;;8.41;92.07;101137.34;6248872;22;20008;-77
2024/02/05 07:05:27;;;;;;;0.00;0.00;;;;;;;8.43;92.10;101127.06;6249609;22;20004;-77
2024/02/05 07:07:53;;;;;;;0.00;0.00;;;;;;;8.30;91.61;101109.84;6253989;22;20007;-81
2024/02/05 07:10:19;;;;;;;0.00;0.00;;;;;;;8.28;91.71;101100.22;6233625;22;20014;-80
2024/02/05 07:12:47;;;;;;;0.00;0.00;;;;;;;8.42;91.61;101126.19;6256772;22;20008;-77
2024/02/05 07:15:12;;;;;;;0.00;0.00;;;;;;;8.32;91.21;101101.41;6208413;22;20024;-80
2024/02/05 07:17:38;;;;;;;0.00;0.00;;;;;;;8.33;91.50;101114.00;6260121;22;20065;-78
2024/02/05 07:20:05;;;;;;;0.00;0.00;;;;;;;8.31;91.25;101108.78;6215682;22;20026;-78
2024/02/05 07:22:31;;;;;;;0.00;0.00;;;;;;;8.37;91.25;101115.19;6286604;22;20008;-79
2024/02/05 07:24:57;;;;;;;0.00;0.00;;;;;;;8.36;90.78;101124.41;6251925;22;20047;-79
2024/02/05 07:27:25;;;;;;;0.00;0.00;;;;;;;8.32;91.55;101120.50;6278631;22;20007;-79
2024/02/05 07:29:50;;;;;;;0.00;0.00;;;;;;;8.29;92.94;101107.34;6281436;22;20010;-80
2024/02/05 07:32:16;;;;;;;0.00;0.00;;;;;;;8.23;93.25;101102.84;6251799;22;20027;-79
2024/02/05 07:34:42;;;;;;;0.00;0.00;;;;;;;8.27;93.55;101106.75;6202602;22;20034;-82
2024/02/05 07:37:13;;;;;;;0.00;0.00;;;;;;;8.26;92.97;101096.91;6206452;22;20422;-82
2024/02/05 07:39:39;;;;;;;0.00;0.00;;;;;;;8.27;92.85;101106.75;6233032;22;20034;-82
2024/02/05 07:42:05;;;;;;;0.00;0.00;;;;;;;8.29;92.60;101112.78;6227051;22;20007;-80
2024/02/05 07:44:31;;;;;;;0.00;0.00;;;;;;;8.32;92.44;101117.78;6228274;22;20342;-78
2024/02/05 07:46:56;;;;;;;0.00;0.00;;;;;;;8.30;92.46;101109.00;6202486;22;20483;-80
2024/02/05 07:49:22;;;;;;;0.00;0.00;;;;;;;8.35;92.69;101120.88;6229987;22;20311;-80
2024/02/05 07:51:49;;;;;;;0.10;0.10;;;;;;;8.30;91.89;101114.47;6228371;22;20012;-78
2024/02/05 07:54:15;;;;;;;0.10;0.10;;;;;;;8.33;91.65;101108.53;6253663;22;20030;-79
2024/02/05 07:56:46;;;;;;;0.00;0.00;;;;;;;8.30;91.32;101103.56;6255137;22;20004;-80
2024/02/05 07:59:48;;;;;;;;;;;;;;;;;;;;;
2024/02/05 08:02:25;;;;;;;0.00;0.00;;;;;;;8.15;91.57;101072.13;6279654;22;20031;-79
2024/02/05 08:04:55;;;;;;;0.00;0.00;;;;;;;8.26;91.23;101073.22;6255027;22;20000;-79
2024/02/05 08:07:44;;;;;;;0.00;0.00;;;;;;;8.24;90.71;101071.81;6278194;22;20077;-80
2024/02/05 08:10:11;;;;;;;0.00;0.00;;;;;;;8.23;90.63;101070.13;6281833;22;20023;-76
2024/02/05 08:12:45;;;;;;;0.00;0.00;;;;;;;8.33;90.46;101089.47;6254062;22;20361;-78
2024/02/05 08:15:10;;;;;;;;;;;;;;;8.33;90.38;101084.00;6229204;22;20059;-79
2024/02/05 08:17:47;;;;;;;0.00;0.00;;;;;;;8.25;90.35;101084.34;6258648;22;20306;-78
2024/02/05 08:20:13;;;;;;;0.00;0.00;;;;;;;8.17;89.70;101061.00;6258219;22;20009;-78
2024/02/05 08:22:46;;;;;;;0.00;0.00;;;;;;;8.11;90.17;101062.78;6256273;22;20008;-79
2024/02/05 08:25:12;;;;;;;0.00;0.00;;;;;;;8.11;90.14;101057.31;6258455;22;20386;-80
2024/02/05 08:27:37;;;;;;;0.00;0.00;;;;;;;8.11;90.53;101046.44;6258933;22;20012;-81
2024/02/05 08:30:03;;;;;;;0.00;0.00;;;;;;;8.28;90.81;101084.72;6230773;22;19992;-80
2024/02/05 08:32:28;;;;;;;0.00;0.00;;;;;;;8.24;90.85;101069.09;6259165;22;20040;-79
2024/02/05 08:34:55;;;;;;;0.10;0.10;;;;;;;8.32;91.71;101085.06;6234165;22;20063;-79
2024/02/05 08:37:23;;;;;;;0.00;0.00;;;;;;;8.27;91.72;101087.69;6282357;22;20042;-78
2024/02/05 08:39:48;;;;;;;0.00;0.00;;;;;;;8.28;91.26;101072.97;6312679;22;19995;-78
2024/02/05 08:42:18;;;;;;;0.00;0.00;;;;;;;8.31;91.43;101077.94;6233217;22;20416;-77
2024/02/05 08:44:45;;;;;;;0.00;0.00;;;;;;;8.41;91.56;101078.22;6283946;22;20448;-79
2024/02/05 08:47:13;;;;;;;0.00;0.00;;;;;;;8.39;91.65;101072.97;6281438;22;20036;-78
2024/02/05 08:49:41;;;;;;;0.00;0.00;;;;;;;8.39;90.96;101075.72;6257994;22;20359;-78
2024/02/05 08:52:06;;;;;;;0.00;0.00;;;;;;;8.47;91.26;101084.63;6283428;22;20015;-78
2024/02/05 08:54:35;;;;;;;0.00;0.00;;;;;;;8.51;91.46;101089.41;6259247;22;20495;-79
2024/02/05 08:57:02;;;;;;;0.00;0.00;;;;;;;8.54;91.94;101072.56;6233381;22;20007;-77
2024/02/05 08:59:30;;;;;;;0.00;0.00;;;;;;;8.65;91.23;101078.25;6283446;22;20063;-78
2024/02/05 09:01:56;;;;;;;0.00;0.00;;;;;;;8.72;90.99;101081.69;6258991;22;20015;-78
2024/02/05 09:04:58;;;;;;;0.00;0.00;;;;;;;8.78;91.51;101078.03;6256658;22;20015;-78
2024/02/05 09:07:26;;;;;;;0.00;0.00;;;;;;;8.69;90.81;101060.38;6258865;22;20027;-80
2024/02/05 09:09:54;;;;;;;0.00;0.00;;;;;;;8.69;91.05;101057.66;6284538;22;20042;-80
2024/02/05 09:12:20;;;;;;;0.00;0.00;;;;;;;8.75;91.57;101064.88;6283395;22;19999;-79
2024/02/05 09:14:45;;;;;;;0.00;0.00;;;;;;;8.73;90.68;101043.28;6282975;22;20487;-80
2024/02/05 09:17:19;;;;;;;0.00;0.00;;;;;;;8.80;90.77;101034.16;6257120;22;20034;-79
2024/02/05 09:19:45;;;;;;;0.00;0.00;;;;;;;8.88;91.15;101042.78;6258280;22;20388;-80
2024/02/05 09:22:12;;;;;;;0.00;0.00;;;;;;;8.95;90.98;101039.09;6282256;22;20094;-79
2024/02/05 09:24:40;;;;;;;0.00;0.00;;;;;;;8.94;90.70;101027.38;6283655;22;20003;-78
2024/02/05 09:27:05;;;;;;;0.00;0.00;;;;;;;9.13;89.93;101052.59;6260241;22;20007;-80
2024/02/05 09:29:31;;;;;;;0.00;0.00;;;;;;;9.16;89.89;101056.75;6255575;22;20012;-79
2024/02/05 09:32:00;;;;;;;0.10;0.10;;;;;;;8.99;90.33;101019.28;6281445;22;20035;-79
2024/02/05 09:34:26;;;;;;;0.00;0.00;;;;;;;9.08;89.98;101038.81;6280792;22;20058;-77
2024/02/05 09:36:51;;;;;;;0.00;0.00;;;;;;;9.23;90.60;101050.06;6230220;22;20019;-80
2024/02/05 09:39:19;;;;;;;0.00;0.00;;;;;;;9.21;90.17;101026.81;6257140;22;20030;-78
2024/02/05 09:41:46;;;;;;;0.00;0.00;;;;;;;9.36;89.77;101045.38;6276898;22;20010;-79
2024/02/05 09:44:15;;;;;;;0.00;0.00;;;;;;;9.40;90.10;101020.13;6280579;22;20006;-79
2024/02/05 09:46:48;;;;;;;0.00;0.00;;;;;;;9.53;89.90;101040.81;6283395;22;20090;-80
2024/02/05 09:49:13;;;;;;;0.00;0.00;;;;;;;9.55;89.67;101026.91;6283737;22;20045;-77
2024/02/05 09:51:39;;;;;;;0.00;0.00;;;;;;;9.60;89.54;101033.31;6256375;22;20011;-79
2024/02/05 09:54:06;;;;;;;0.00;0.00;;;;;;;9.60;89.79;101030.56;6286138;22;20080;-79
2024/02/05 09:56:35;;;;;;;0.00;0.00;;;;;;;9.52;89.73;101017.34;6259583;22;20007;-79
2024/02/05 09:59:01;;;;;;;0.00;0.00;;;;;;;9.57;90.37;101031.06;6282269;22;19999;-79
2024/02/05 10:01:44;;;;;;;0.00;0.00;;;;;;;9.58;90.51;100999.16;6259207;22;20017;-79
2024/02/05 10:04:15;;;;;;;0.00;0.00;;;;;;;9.86;89.66;101022.84;6284538;22;20006;-77
2024/02/05 10:06:45;;;;;;;0.00;0.00;;;;;;;10.02;89.37;101029.41;6284588;22;20014;-78
2024/02/05 10:09:30;;;;;;;0.00;0.00;;;;;;;9.90;88.35;101002.16;6281856;22;19998;-76
2024/02/05 10:11:57;;;;;;;0.00;0.00;;;;;;;9.93;88.58;101012.59;6281854;22;20672;-78
2024/02/05 10:14:25;;;;;;;0.00;0.00;;;;;;;10.04;88.09;101008.13;6279445;22;20007;-77
2024/02/05 10:16:52;;;;;;;0.00;0.00;;;;;;;10.09;87.71;101023.75;6232123;22;20022;-76
2024/02/05 10:19:17;;;;;;;0.10;0.10;;;;;;;10.15;87.83;101020.06;6280322;22;20000;-76
2024/02/05 10:21:43;;;;;;;0.00;0.00;;;;;;;10.09;88.04;100993.69;6255161;22;20082;-77
2024/02/05 10:24:15;;;;;;;0.00;0.00;;;;;;;10.16;88.64;100988.09;6254603;22;20371;-77
2024/02/05 10:26:41;;;;;;;0.00;0.00;;;;;;;10.36;87.84;101004.00;6279229;22;20082;-79
2024/02/05 10:29:10;;;;;;;0.00;0.00;;;;;;;10.25;87.29;100987.41;6280963;22;20338;-77
2024/02/05 10:31:49;;;;;;;0.00;0.00;;;;;;;10.33;86.98;100993.53;6283175;22;20060;-79
2024/02/05 10:34:22;;;;;;;0.00;0.00;;;;;;;10.21;87.54;100983.53;6254787;22;20694;-78
2024/02/05 10:36:48;;;;;;;0.00;0.00;;;;;;;10.29;87.41;100983.13;6276370;22;20086;-76
2024/02/05 10:39:24;;;;;;;0.00;0.00;;;;;;;10.38;86.69;100975.34;6280483;22;19999;-75
2024/02/05 10:41:52;;;;;;;0.00;0.00;;;;;;;10.61;85.90;100965.25;6249580;22;20601;-76
2024/02/05 10:44:33;;;;;;;0.00;0.00;;;;;;;10.89;83.96;100990.78;6279222;22;20015;-76
2024/02/05 10:47:01;;;;;;;0.00;0.00;;;;;;;10.90;83.46;101003.38;6247288;22;20014;-79
2024/02/05 10:49:39;;;;;;;0.00;0.00;;;;;;;10.81;82.57;100990.13;6251168;22;20605;-78
2024/02/05 10:52:05;;;;;;;0.00;0.00;;;;;;;10.83;83.02;101001.66;6273697;22;20042;-77
2024/02/05 10:54:32;;;;;;;0.00;0.00;;;;;;;10.82;83.39;100990.97;6274815;22;20003;-77
2024/02/05 10:57:01;;;;;;;0.00;0.00;;;;;;;10.86;83.81;100981.16;6249880;22;20015;-77
2024/02/05 10:59:26;;;;;;;0.00;0.00;;;;;;;10.85;83.56;100974.06;6223240;22;20373;-78
2024/02/05 11:02:29;;;;;;;0.00;0.00;;;;;;;10.80;83.15;100993.13;6276606;22;20007;-77
2024/02/05 11:05:35;;;;;;;0.00;0.00;;;;;;;10.36;82.99;100932.94;6129057;23;20029;-78
2024/02/05 11:08:38;;;;;;;0.00;0.00;;;;;;;10.45;83.91;100925.94;6128435;23;20467;-76
2024/02/05 11:11:15;;;;;;;0.00;0.00;;;;;;;10.54;82.76;100942.72;6130442;23;20009;-76
2024/02/05 11:14:12;;;;;;;0.00;0.00;;;;;;;10.56;83.10;100979.69;6153624;23;20009;-77
2024/02/05 11:17:01;;;;;;;0.00;0.00;;;;;;;10.50;83.82;100967.03;6135369;23;20085;-77
2024/02/05 11:19:32;;;;;;;0.00;0.00;;;;;;;10.47;84.29;100973.00;6197689;22;20038;-76
2024/02/05 11:22:04;;;;;;;0.00;0.00;;;;;;;10.19;84.91;100933.75;6250362;22;20055;-77
2024/02/05 11:24:31;;;;;;;0.05;0.05;;;;;;;10.35;84.86;100959.41;6250013;22;20038;-77
2024/02/05 11:27:12;;;;;;;0.00;0.00;;;;;;;10.36;85.71;100946.59;6251443;22;20012;-78
2024/02/05 11:29:41;;;;;;;0.00;0.00;;;;;;;10.39;84.60;100951.56;6250133;22;20423;-78
2024/02/05 11:32:17;;;;;;;0.00;0.00;;;;;;;10.45;84.64;100947.81;6279005;22;20007;-77
2024/02/05 11:34:44;;;;;;;0.00;0.00;;;;;;;10.38;84.58;100926.13;6250087;22;20003;-78
2024/02/05 11:37:27;;;;;;;0.00;0.00;;;;;;;10.38;84.54;100948.00;6281727;22;20012;-78
2024/02/05 11:39:55;;;;;;;0.00;0.00;;;;;;;10.47;84.34;100957.41;6251306;22;19996;-78
2024/02/05 11:42:20;;;;;;;0.00;0.00;;;;;;;10.42;84.06;100937.38;6251580;22;20004;-79
2024/02/05 11:44:47;;;;;;;0.00;0.00;;;;;;;10.35;84.13;100920.31;6227050;22;20011;-77
2024/02/05 11:47:15;;;;;;;0.00;0.00;;;;;;;10.44;84.42;100933.31;6280829;22;20007;-77
2024/02/05 11:49:44;;;;;;;0.00;0.00;;;;;;;10.46;83.08;100912.00;6252937;22;20000;-79
2024/02/05 11:52:09;;;;;;;0.00;0.00;;;;;;;10.49;82.56;100902.47;6282411;22;19999;-77